South Plainfield, New Jersey
Current Conditions -  °F | °C
As of 2:15 AM on Sunday 26 Oct 2014 (Local Time) from KLDJ Reporting Station
Overcast Overcast  
Wind Chill: 64°   Ceiling: 11000
Heat Index: 64°   Visibility: 10mi
Dew Point: 49°   Wind: 7mph
Humidity: 56%   Direction: 290°WNW
Pressure: 29.58"   Gusts: NA
Location:  40.58°N, 74.42°W
Report Text: KLDJ 260615Z AUTO 29006KT 10SM OVC110 18/09 A2958 RMK AO2 T01800092
Loading
Personal Weather Stations






























Interactive Weather Map
Tropical Storm Tracking
New forecast layout! Learn more

10-Day Weather Forecast

Advertisements
Track Severe Weather on mobile